createdAt,value
2023-03-05T00:02:26.157Z,14.95
2023-03-05T00:05:40.856Z,15.30
2023-03-05T00:08:45.962Z,15.88
2023-03-05T00:11:53.785Z,13.02
2023-03-05T00:15:01.298Z,15.52
2023-03-05T00:18:09.504Z,15.75
2023-03-05T00:21:23.349Z,17.40
2023-03-05T00:24:45.576Z,17.50
2023-03-05T00:27:47.859Z,12.63
2023-03-05T00:30:50.348Z,15.63
2023-03-05T00:34:01.608Z,17.35
2023-03-05T00:37:09.265Z,13.30
2023-03-05T00:40:23.429Z,18.23
2023-03-05T00:43:29.688Z,14.10
2023-03-05T00:46:37.992Z,16.65
2023-03-05T00:49:43.165Z,15.40
2023-03-05T00:52:49.607Z,14.60
2023-03-05T00:55:58.383Z,17.50
2023-03-05T00:59:04.181Z,15.05
2023-03-05T01:02:06.415Z,15.25
2023-03-05T01:05:13.103Z,16.13
2023-03-05T01:08:24.268Z,17.60
2023-03-05T01:11:53.021Z,13.38
2023-03-05T01:14:55.686Z,12.90
2023-03-05T01:18:06.354Z,16.77
2023-03-05T01:21:19.546Z,15.50
2023-03-05T01:24:23.787Z,13.33
2023-03-05T01:27:41.353Z,14.85
2023-03-05T01:30:43.608Z,15.82
2023-03-05T01:34:04.593Z,13.40
2023-03-05T01:37:10.089Z,13.63
2023-03-05T01:40:16.420Z,12.70
2023-03-05T01:43:26.305Z,14.95
2023-03-05T01:46:41.004Z,16.60
2023-03-05T01:49:49.862Z,14.95
2023-03-05T01:52:58.360Z,15.73
2023-03-05T01:56:03.829Z,7.60
2023-03-05T01:59:07.065Z,16.00
2023-03-05T02:02:21.349Z,15.70
2023-03-05T02:05:36.331Z,14.23
2023-03-05T02:08:48.599Z,16.25
2023-03-05T02:12:06.420Z,16.30
2023-03-05T02:15:16.748Z,14.77
2023-03-05T02:18:24.913Z,18.13
2023-03-05T02:21:49.485Z,15.30
2023-03-05T02:24:58.750Z,13.05
2023-03-05T02:28:27.499Z,15.90
2023-03-05T02:31:31.293Z,17.02
2023-03-05T02:34:43.238Z,14.68
2023-03-05T02:37:51.136Z,17.73
2023-03-05T02:40:56.280Z,16.17
2023-03-05T02:44:00.893Z,14.50
2023-03-05T02:47:11.938Z,15.20
2023-03-05T02:50:14.614Z,14.45
2023-03-05T02:53:23.187Z,17.05
2023-03-05T02:56:42.150Z,16.80
2023-03-05T02:59:48.958Z,14.37
2023-03-05T03:02:53.677Z,15.68
2023-03-05T03:06:02.267Z,18.08
2023-03-05T03:09:08.049Z,14.32
2023-03-05T03:12:26.151Z,13.57
2023-03-05T03:15:32.797Z,13.23
2023-03-05T03:18:38.594Z,11.80
2023-03-05T03:21:47.147Z,17.02
2023-03-05T03:25:04.701Z,13.85
2023-03-05T03:28:12.222Z,16.00
2023-03-05T03:31:22.648Z,13.73
2023-03-05T03:34:32.799Z,14.85
2023-03-05T03:37:38.790Z,15.77
2023-03-05T03:40:50.740Z,13.80
2023-03-05T03:44:03.087Z,15.85
2023-03-05T03:47:07.388Z,14.67
2023-03-05T03:50:17.300Z,12.68
2023-03-05T03:53:31.870Z,14.13
2023-03-05T03:56:39.736Z,13.25
2023-03-05T03:59:51.217Z,12.93
2023-03-05T04:02:56.475Z,12.23
2023-03-05T04:05:58.770Z,13.52
2023-03-05T04:09:03.955Z,13.80
2023-03-05T04:12:12.736Z,16.27
2023-03-05T04:15:21.646Z,15.02
2023-03-05T04:18:32.661Z,14.67
2023-03-05T04:21:41.321Z,14.80
2023-03-05T04:24:54.905Z,14.75
2023-03-05T04:28:23.493Z,13.23
2023-03-05T04:31:26.866Z,13.98
2023-03-05T04:34:43.529Z,12.57
2023-03-05T04:38:03.167Z,14.65
2023-03-05T04:41:08.956Z,12.23
2023-03-05T04:44:15.437Z,12.90
2023-03-05T04:47:21.280Z,16.23
2023-03-05T04:50:31.715Z,15.10
2023-03-05T04:53:36.193Z,15.23
2023-03-05T04:56:47.011Z,13.13
2023-03-05T04:59:49.397Z,14.95
2023-03-05T05:03:04.265Z,13.70
2023-03-05T05:06:15.764Z,11.90
2023-03-05T05:09:19.511Z,14.43
2023-03-05T05:12:26.022Z,12.88
2023-03-05T05:15:33.387Z,15.20
2023-03-05T05:18:41.243Z,14.38
2023-03-05T05:21:47.836Z,15.03
2023-03-05T05:25:02.300Z,15.65
2023-03-05T05:28:12.683Z,14.73
2023-03-05T05:31:24.823Z,13.52
2023-03-05T05:34:27.390Z,14.80
2023-03-05T05:37:36.021Z,13.07
2023-03-05T05:40:40.687Z,12.50
2023-03-05T05:43:56.315Z,12.70
2023-03-05T05:47:07.651Z,12.60
2023-03-05T05:50:18.524Z,14.77
2023-03-05T05:53:26.945Z,19.73
2023-03-05T05:56:34.292Z,18.73
2023-03-05T05:59:40.208Z,21.33
2023-03-05T06:02:44.925Z,18.08
2023-03-05T06:05:47.784Z,14.88
2023-03-05T06:08:52.829Z,17.90
2023-03-05T06:12:00.778Z,18.80
2023-03-05T06:15:06.566Z,14.98
2023-03-05T06:18:08.782Z,15.85
2023-03-05T06:21:16.880Z,16.20
2023-03-05T06:24:23.487Z,16.83
2023-03-05T06:27:36.180Z,15.95
2023-03-05T06:30:43.789Z,16.63
2023-03-05T06:33:47.312Z,15.07
2023-03-05T06:36:58.464Z,16.63
2023-03-05T06:40:03.789Z,15.77
2023-03-05T06:43:16.746Z,16.02
2023-03-05T06:46:31.668Z,17.45
2023-03-05T06:49:42.658Z,17.95
2023-03-05T06:52:52.306Z,19.23
2023-03-05T06:56:04.124Z,19.33
2023-03-05T06:59:16.123Z,17.35
2023-03-05T07:02:30.582Z,19.42
2023-03-05T07:05:38.005Z,21.80
2023-03-05T07:08:41.895Z,21.50
2023-03-05T07:11:44.483Z,18.70
2023-03-05T07:14:46.780Z,16.83
2023-03-05T07:17:52.119Z,15.25
2023-03-05T07:21:01.440Z,20.92
2023-03-05T07:24:16.286Z,17.00
2023-03-05T07:27:25.419Z,17.70
2023-03-05T07:30:34.340Z,16.65
2023-03-05T07:33:38.408Z,16.48
2023-03-05T07:36:43.842Z,17.15
2023-03-05T07:39:48.353Z,19.08
2023-03-05T07:43:01.144Z,17.47
2023-03-05T07:46:21.247Z,16.85
2023-03-05T07:49:23.935Z,18.83
2023-03-05T07:52:34.229Z,18.73
2023-03-05T07:55:53.878Z,17.05
2023-03-05T07:59:06.293Z,17.10
2023-03-05T08:02:13.668Z,18.60
2023-03-05T08:05:16.201Z,15.93
2023-03-05T08:08:24.290Z,18.63
2023-03-05T08:11:32.198Z,16.48
2023-03-05T08:14:38.099Z,17.03
2023-03-05T08:17:44.249Z,19.15
2023-03-05T08:20:49.389Z,16.27
2023-03-05T08:23:59.737Z,16.55
2023-03-05T08:27:12.303Z,16.73
2023-03-05T08:30:29.890Z,17.27
2023-03-05T08:33:41.565Z,17.25
2023-03-05T08:36:51.211Z,16.52
2023-03-05T08:39:56.908Z,18.25
2023-03-05T08:43:07.240Z,17.70
2023-03-05T08:46:12.290Z,18.20
2023-03-05T08:49:26.760Z,15.57
2023-03-05T08:52:36.198Z,17.52
2023-03-05T08:55:44.288Z,18.92
2023-03-05T08:58:55.505Z,17.88
2023-03-05T09:02:06.670Z,17.60
2023-03-05T09:05:11.621Z,19.15
2023-03-05T09:08:15.963Z,17.08
2023-03-05T09:11:20.597Z,17.13
2023-03-05T09:14:28.736Z,18.35
2023-03-05T09:17:37.898Z,19.43
2023-03-05T09:20:52.719Z,16.17
2023-03-05T09:24:09.112Z,19.15
2023-03-05T09:27:17.323Z,17.00
2023-03-05T09:30:25.260Z,17.17
2023-03-05T09:33:31.626Z,20.90
2023-03-05T09:36:39.163Z,18.55
2023-03-05T09:39:46.998Z,18.88
2023-03-05T09:43:02.442Z,20.98
2023-03-05T09:46:38.296Z,18.08
2023-03-05T09:49:54.698Z,18.67
2023-03-05T09:53:39.813Z,16.75
2023-03-05T09:56:56.725Z,15.60
2023-03-05T10:00:31.451Z,12.93
2023-03-05T10:03:36.905Z,16.20
2023-03-05T10:07:03.531Z,14.30
2023-03-05T10:10:43.510Z,12.90
2023-03-05T10:14:14.574Z,15.10
2023-03-05T10:17:52.690Z,12.77
2023-03-05T10:24:51.139Z,14.00
2023-03-05T10:28:08.560Z,15.52
2023-03-05T10:31:39.014Z,14.57
2023-03-05T10:35:26.613Z,12.20
2023-03-05T10:38:51.151Z,11.18
2023-03-05T10:42:05.973Z,11.63
2023-03-05T10:45:36.435Z,11.00
2023-03-05T10:49:01.820Z,12.55
2023-03-05T10:52:13.157Z,12.40
2023-03-05T10:55:35.480Z,12.50
2023-03-05T10:58:41.741Z,10.73
2023-03-05T11:02:11.836Z,12.93
2023-03-05T11:05:39.123Z,12.73
2023-03-05T11:08:54.606Z,11.20
2023-03-05T11:12:18.422Z,13.90
2023-03-05T11:15:28.592Z,12.77
2023-03-05T11:18:34.606Z,12.57
2023-03-05T11:21:44.419Z,14.32
2023-03-05T11:25:11.048Z,12.85
2023-03-05T11:28:30.921Z,15.88
2023-03-05T11:31:40.499Z,13.53
2023-03-05T11:34:49.960Z,14.13
2023-03-05T11:38:10.197Z,13.85
2023-03-05T11:41:15.523Z,13.40
2023-03-05T11:44:36.144Z,15.70
2023-03-05T11:47:49.680Z,14.50
2023-03-05T11:51:10.827Z,14.02
2023-03-05T11:54:23.068Z,15.63
2023-03-05T11:57:37.295Z,14.75
2023-03-05T12:00:52.430Z,15.18
2023-03-05T12:04:02.243Z,16.13
2023-03-05T12:07:15.457Z,21.30
2023-03-05T12:10:22.347Z,17.77
2023-03-05T12:13:35.188Z,17.80
2023-03-05T12:16:59.744Z,16.42
2023-03-05T12:20:31.268Z,16.37
2023-03-05T12:24:06.492Z,13.50
2023-03-05T12:27:15.970Z,18.17
2023-03-05T12:30:38.486Z,13.55
2023-03-05T12:33:50.438Z,11.38
2023-03-05T12:36:57.120Z,11.23
2023-03-05T12:40:23.548Z,14.63
2023-03-05T12:43:33.954Z,9.18
2023-03-05T12:46:37.645Z,12.35
2023-03-05T12:49:52.528Z,9.27
2023-03-05T12:52:58.097Z,11.87
2023-03-05T12:56:12.407Z,9.40
2023-03-05T12:59:23.141Z,10.38
2023-03-05T13:03:02.492Z,12.25
2023-03-05T13:06:06.753Z,11.07
2023-03-05T13:09:18.856Z,9.10
2023-03-05T13:12:32.022Z,9.77
2023-03-05T13:15:41.839Z,9.60
2023-03-05T13:18:48.278Z,9.02
2023-03-05T13:22:10.763Z,9.35
2023-03-05T13:25:22.572Z,10.37
2023-03-05T13:28:31.327Z,9.10
2023-03-05T13:31:43.243Z,8.10
2023-03-05T13:34:48.651Z,9.20
2023-03-05T13:37:53.092Z,9.52
2023-03-05T13:41:10.668Z,9.27
2023-03-05T13:44:33.442Z,11.68
2023-03-05T13:47:39.989Z,8.60
2023-03-05T13:50:42.242Z,7.20
2023-03-05T13:53:49.306Z,7.97
2023-03-05T13:56:57.613Z,5.70
2023-03-05T14:00:07.152Z,7.93
2023-03-05T14:03:27.531Z,9.52
2023-03-05T14:06:42.313Z,7.47
2023-03-05T14:09:54.364Z,9.75
2023-03-05T14:13:00.538Z,6.87
2023-03-05T14:16:15.909Z,6.45
2023-03-05T14:19:42.027Z,7.32
2023-03-05T14:22:48.123Z,6.38
2023-03-05T14:25:53.692Z,8.52
2023-03-05T14:29:11.876Z,7.73
2023-03-05T14:32:44.549Z,8.57
2023-03-05T14:35:52.820Z,7.45
2023-03-05T14:39:00.052Z,7.90
2023-03-05T14:42:21.112Z,8.25
2023-03-05T14:45:31.299Z,6.10
2023-03-05T14:48:44.176Z,7.93
2023-03-05T14:51:51.294Z,6.95
2023-03-05T14:54:54.721Z,8.73
2023-03-05T14:58:07.516Z,8.43
2023-03-05T15:01:18.751Z,9.33
2023-03-05T15:04:21.259Z,8.20
2023-03-05T15:07:39.268Z,6.28
2023-03-05T15:10:54.526Z,6.82
2023-03-05T15:14:09.218Z,5.53
2023-03-05T15:17:23.642Z,6.50
2023-03-05T15:20:32.094Z,7.25
2023-03-05T15:23:39.246Z,5.97
2023-03-05T15:26:50.246Z,6.25
2023-03-05T15:30:10.297Z,5.85
2023-03-05T15:33:20.255Z,6.43
2023-03-05T15:36:27.248Z,6.05
2023-03-05T15:39:32.592Z,6.88
2023-03-05T15:42:36.923Z,8.10
2023-03-05T15:45:49.468Z,6.70
2023-03-05T15:48:56.612Z,6.37
2023-03-05T15:52:02.100Z,9.23
2023-03-05T15:55:07.348Z,6.82
2023-03-05T15:58:13.044Z,6.60
2023-03-05T16:01:17.989Z,6.65
2023-03-05T16:04:24.151Z,7.57
2023-03-05T16:07:26.954Z,7.45
2023-03-05T16:10:43.224Z,8.63
2023-03-05T16:13:45.632Z,7.15
2023-03-05T16:16:54.377Z,5.20
2023-03-05T16:19:59.505Z,6.47
2023-03-05T16:23:16.106Z,5.80
2023-03-05T16:26:25.427Z,6.53
2023-03-05T16:29:39.598Z,6.50
2023-03-05T16:32:45.292Z,7.78
2023-03-05T16:35:50.583Z,5.53
2023-03-05T16:38:58.724Z,5.72
2023-03-05T16:42:08.542Z,6.53
2023-03-05T16:45:16.020Z,8.90
2023-03-05T16:48:19.421Z,5.45
2023-03-05T16:51:37.011Z,5.40
2023-03-05T16:54:44.615Z,4.18
2023-03-05T16:57:48.708Z,4.60
2023-03-05T17:00:50.992Z,4.03
2023-03-05T17:03:54.065Z,4.20
2023-03-05T17:07:08.836Z,4.13
2023-03-05T17:10:14.682Z,5.22
2023-03-05T17:13:22.675Z,4.00
2023-03-05T17:16:28.003Z,4.50
2023-03-05T17:19:36.311Z,5.82
2023-03-05T17:22:38.687Z,8.23
2023-03-05T17:25:44.040Z,4.65
2023-03-05T17:28:54.385Z,5.63
2023-03-05T17:32:00.551Z,6.00
2023-03-05T17:35:05.150Z,4.80
2023-03-05T17:38:15.330Z,5.97
2023-03-05T17:41:20.390Z,7.20
2023-03-05T17:44:29.458Z,5.15
2023-03-05T17:47:37.222Z,6.25
2023-03-05T17:50:48.677Z,6.03
2023-03-05T17:53:52.896Z,4.17
2023-03-05T17:57:01.166Z,5.25
2023-03-05T18:00:07.277Z,6.25
2023-03-05T18:03:19.339Z,5.68
2023-03-05T18:06:24.642Z,7.45
2023-03-05T18:09:37.855Z,7.20
2023-03-05T18:12:42.151Z,9.48
2023-03-05T18:15:51.401Z,9.80
2023-03-05T18:19:01.952Z,7.78
2023-03-05T18:22:17.587Z,7.32
2023-03-05T18:25:25.844Z,6.90
2023-03-05T18:28:28.887Z,6.97
2023-03-05T18:31:35.996Z,7.38
2023-03-05T18:34:50.580Z,8.13
2023-03-05T18:38:05.900Z,8.52
2023-03-05T18:41:09.492Z,7.90
2023-03-05T18:44:22.002Z,11.20
2023-03-05T18:47:24.386Z,9.20
2023-03-05T18:50:32.605Z,10.57
2023-03-05T18:53:34.921Z,6.50
2023-03-05T18:56:41.310Z,8.27
2023-03-05T18:59:45.961Z,8.35
2023-03-05T19:02:58.406Z,7.20
2023-03-05T19:06:06.238Z,7.68
2023-03-05T19:09:53.282Z,8.18
2023-03-05T19:13:44.582Z,6.27
2023-03-05T19:16:55.270Z,7.03
2023-03-05T19:20:04.957Z,7.22
2023-03-05T19:23:14.316Z,7.72
2023-03-05T19:26:24.906Z,7.70
2023-03-05T19:29:40.352Z,8.93
2023-03-05T19:32:48.401Z,8.90
2023-03-05T19:35:53.446Z,8.95
2023-03-05T19:39:02.176Z,11.85
2023-03-05T19:42:12.030Z,6.43
2023-03-05T19:45:16.692Z,7.27
2023-03-05T19:48:23.112Z,7.90
2023-03-05T19:51:30.766Z,6.85
2023-03-05T19:54:35.428Z,7.95
2023-03-05T19:57:46.635Z,8.73
2023-03-05T20:00:53.612Z,6.63
2023-03-05T20:03:59.860Z,9.15
2023-03-05T20:07:09.404Z,8.70
2023-03-05T20:10:16.137Z,8.48
2023-03-05T20:13:24.236Z,7.95
2023-03-05T20:16:41.395Z,8.03
2023-03-05T20:19:43.674Z,10.15
2023-03-05T20:22:55.186Z,6.55
2023-03-05T20:26:01.529Z,6.88
2023-03-05T20:29:15.441Z,9.60
2023-03-05T20:32:19.617Z,8.57
2023-03-05T20:35:26.717Z,11.85
2023-03-05T20:38:30.936Z,8.38
2023-03-05T20:41:39.184Z,9.45
2023-03-05T20:44:57.007Z,10.90
2023-03-05T20:48:02.315Z,9.30
2023-03-05T20:51:24.744Z,8.93
2023-03-05T20:54:30.730Z,12.60
2023-03-05T20:57:33.214Z,8.35
2023-03-05T21:00:55.099Z,9.05
2023-03-05T21:04:00.917Z,10.87
2023-03-05T21:07:05.356Z,12.15
2023-03-05T21:10:12.050Z,11.18
2023-03-05T21:13:21.254Z,12.77
2023-03-05T21:16:30.116Z,13.48
2023-03-05T21:19:38.010Z,13.23
2023-03-05T21:22:43.590Z,9.60
2023-03-05T21:25:47.004Z,11.35
2023-03-05T21:28:54.508Z,11.25
2023-03-05T21:31:59.794Z,14.18
2023-03-05T21:35:08.095Z,8.37
2023-03-05T21:38:11.629Z,9.30
2023-03-05T21:41:37.133Z,11.20
2023-03-05T21:44:42.062Z,10.00
2023-03-05T21:47:56.250Z,9.15
2023-03-05T21:50:58.949Z,10.03
2023-03-05T21:54:08.957Z,12.65
2023-03-05T21:57:14.566Z,12.90
2023-03-05T22:00:22.673Z,12.65
2023-03-05T22:03:33.190Z,11.07
2023-03-05T22:06:40.540Z,12.77
2023-03-05T22:09:58.905Z,9.65
2023-03-05T22:13:14.468Z,12.07
2023-03-05T22:16:25.881Z,11.77
2023-03-05T22:19:29.911Z,9.80
2023-03-05T22:22:42.188Z,10.63
2023-03-05T22:25:50.504Z,12.18
2023-03-05T22:28:57.577Z,9.18
2023-03-05T22:31:59.887Z,10.13
2023-03-05T22:35:08.176Z,10.10
2023-03-05T22:38:17.991Z,10.10
2023-03-05T22:41:21.571Z,8.20
2023-03-05T22:44:25.110Z,8.50
2023-03-05T22:47:38.872Z,9.98
2023-03-05T22:50:47.380Z,8.07
2023-03-05T22:53:51.510Z,8.30
2023-03-05T22:57:00.707Z,7.80
2023-03-05T23:00:12.379Z,9.10
2023-03-05T23:03:17.819Z,6.55
2023-03-05T23:06:23.353Z,8.93
2023-03-05T23:09:34.260Z,8.63
2023-03-05T23:12:40.184Z,8.40
2023-03-05T23:15:48.048Z,10.00
2023-03-05T23:18:50.410Z,8.18
2023-03-05T23:22:02.548Z,11.68
2023-03-05T23:25:07.490Z,8.60
2023-03-05T23:28:09.866Z,7.40
2023-03-05T23:31:12.233Z,8.73
2023-03-05T23:34:16.909Z,8.07
2023-03-05T23:37:21.928Z,10.20
2023-03-05T23:40:35.248Z,9.43
2023-03-05T23:43:42.782Z,7.97
2023-03-05T23:46:57.273Z,9.45
2023-03-05T23:50:02.840Z,8.05
2023-03-05T23:53:06.629Z,10.60
2023-03-05T23:56:17.040Z,8.47
2023-03-05T23:59:32.062Z,8.93
